Blake Denton — WDI4288 — position and weather

sailwx.info

Track history (hours):
 
Tides and Currents Weather Stations Pressure Air Temp Water Temp Dewpoint Dewpoint Depression Visibility Wind Speed Wind Dir Waves Ship Positions

Blake Denton

Owner: Marquette Transportation Co. LLC, Paducah, KY. More information available from US FCC via Universal Licensing System and Coast Guard Vessel Documentation Center.

Last reported at 2018-Jan-19 07:10 UTC. Time now 2018-Jan-23 06:22 UTC.
Position N 31°56' W 091°12'.

Length 52 m; draft 3.4 m.

Type: Towing. MMSI: 367072210.

Date/timePositionNaut miles runAvg speedWind from/ knotsBaromVisibWave heightAir tempDewpointWater temp
2018-Jan-19 07:10N 31°56' W 091°12'2 9.4
2018-Jan-19 07:00N 31°58' W 091°11'4 8.2
2018-Jan-19 06:28N 31°59' W 091°06'4 8.7
2018-Jan-19 06:01N 32°02' W 091°04'4 8.2
2018-Jan-19 05:29N 32°06' W 091°06'2 3.4
2018-Jan-19 05:01N 32°08' W 091°06'1 2.2
2018-Jan-19 04:31N 32°08' W 091°05'3 5.2
2018-Jan-19 04:00N 32°07' W 091°02'3 6.0
2018-Jan-19 03:31N 32°10' W 091°00'4 7.2
2018-Jan-19 03:00N 32°13' W 090°59'4 7.8
2018-Jan-19 02:31N 32°17' W 090°57'4 7.9
2018-Jan-19 02:01N 32°20' W 090°54'4 7.7
2018-Jan-19 01:30N 32°21' W 090°58'3 6.4
2018-Jan-19 01:01N 32°24' W 090°59'4 8.1
2018-Jan-19 00:31N 32°26' W 091°03'4 8.6
2018-Jan-19 00:00N 32°29' W 091°07'4 9.0
2018-Jan-18 23:30N 32°34' W 091°06'4 8.8
2018-Jan-18 23:01N 32°37' W 091°09'8 0.6
2018-Jan-18 10:17N 32°44' W 091°04'0 0.0
2018-Jan-18 09:50N 32°44' W 091°04'0 0.0
2018-Jan-18 09:29N 32°44' W 091°04'  
Track history (hours):
 
Tides and Currents Weather Stations Pressure Air Temp Water Temp Dewpoint Dewpoint Depression Visibility Wind Speed Wind Dir Waves Ship Positions

Blake Denton

Owner: Marquette Transportation Co. LLC, Paducah, KY. More information available from US FCC via Universal Licensing System and Coast Guard Vessel Documentation Center.

Last reported at 2018-Jan-19 07:10 UTC. Time now 2018-Jan-23 06:22 UTC.
Position N 31°56' W 091°12'.

Length 52 m; draft 3.4 m.

Type: Towing. MMSI: 367072210.

Date/timePositionNaut miles runAvg speedWind from/ knotsBaromVisibWave heightAir tempDewpointWater temp
2018-Jan-19 07:10N 31°56' W 091°12'2 9.4
2018-Jan-19 07:00N 31°58' W 091°11'4 8.2
2018-Jan-19 06:28N 31°59' W 091°06'4 8.7
2018-Jan-19 06:01N 32°02' W 091°04'4 8.2
2018-Jan-19 05:29N 32°06' W 091°06'2 3.4
2018-Jan-19 05:01N 32°08' W 091°06'1 2.2
2018-Jan-19 04:31N 32°08' W 091°05'3 5.2
2018-Jan-19 04:00N 32°07' W 091°02'3 6.0
2018-Jan-19 03:31N 32°10' W 091°00'4 7.2
2018-Jan-19 03:00N 32°13' W 090°59'4 7.8
2018-Jan-19 02:31N 32°17' W 090°57'4 7.9
2018-Jan-19 02:01N 32°20' W 090°54'4 7.7
2018-Jan-19 01:30N 32°21' W 090°58'3 6.4
2018-Jan-19 01:01N 32°24' W 090°59'4 8.1
2018-Jan-19 00:31N 32°26' W 091°03'4 8.6
2018-Jan-19 00:00N 32°29' W 091°07'4 9.0
2018-Jan-18 23:30N 32°34' W 091°06'4 8.8
2018-Jan-18 23:01N 32°37' W 091°09'8 0.6
2018-Jan-18 10:17N 32°44' W 091°04'0 0.0
2018-Jan-18 09:50N 32°44' W 091°04'0 0.0
2018-Jan-18 09:29N 32°44' W 091°04'  

Dump ship's entire track history